createdAt,value
2023-01-29T00:01:59.783Z,3.20
2023-01-29T00:06:07.154Z,3.63
2023-01-29T00:10:11.769Z,4.10
2023-01-29T00:14:14.899Z,3.57
2023-01-29T00:18:19.312Z,3.73
2023-01-29T00:22:22.376Z,3.80
2023-01-29T00:26:25.477Z,3.73
2023-01-29T00:30:28.552Z,4.10
2023-01-29T00:34:32.932Z,4.47
2023-01-29T00:38:36.899Z,4.00
2023-01-29T00:42:57.186Z,4.00
2023-01-29T00:47:00.427Z,4.20
2023-01-29T00:51:05.162Z,3.93
2023-01-29T00:55:10.189Z,3.87
2023-01-29T00:59:13.975Z,3.23
2023-01-29T01:03:17.500Z,4.13
2023-01-29T01:07:22.494Z,3.60
2023-01-29T01:11:26.737Z,4.30
2023-01-29T01:15:31.922Z,4.03
2023-01-29T01:19:35.155Z,4.10
2023-01-29T01:23:39.561Z,3.87
2023-01-29T01:27:42.825Z,3.40
2023-01-29T01:31:45.934Z,3.50
2023-01-29T01:35:49.040Z,3.73
2023-01-29T01:39:58.524Z,3.70
2023-01-29T01:44:03.868Z,3.87
2023-01-29T01:48:13.010Z,3.63
2023-01-29T01:52:17.532Z,3.77
2023-01-29T01:56:28.665Z,3.90
2023-01-29T02:00:31.850Z,3.57
2023-01-29T02:04:52.504Z,3.30
2023-01-29T02:09:17.347Z,3.80
2023-01-29T02:13:22.381Z,3.97
2023-01-29T02:17:25.517Z,3.17
2023-01-29T02:21:48.514Z,3.57
2023-01-29T02:26:11.473Z,3.47
2023-01-29T02:30:22.147Z,3.73
2023-01-29T02:34:55.136Z,3.70
2023-01-29T02:39:08.831Z,3.43
2023-01-29T02:43:25.098Z,3.33
2023-01-29T02:47:36.356Z,3.60
2023-01-29T02:51:45.265Z,3.90
2023-01-29T02:55:52.814Z,3.60
2023-01-29T03:00:00.725Z,3.47
2023-01-29T03:04:10.553Z,3.33
2023-01-29T03:08:22.571Z,3.50
2023-01-29T03:12:34.044Z,3.83
2023-01-29T03:16:44.940Z,4.23
2023-01-29T03:20:53.988Z,3.90
2023-01-29T03:25:19.106Z,3.57
2023-01-29T03:29:41.786Z,4.27
2023-01-29T03:33:49.875Z,4.23
2023-01-29T03:37:56.935Z,3.63
2023-01-29T03:42:06.115Z,3.90
2023-01-29T03:46:19.068Z,3.63
2023-01-29T03:50:37.014Z,3.77
2023-01-29T03:55:01.602Z,3.47
2023-01-29T03:59:18.310Z,3.70
2023-01-29T04:03:44.686Z,3.67
2023-01-29T04:07:53.530Z,3.80
2023-01-29T04:12:06.547Z,3.77
2023-01-29T04:16:15.641Z,3.40
2023-01-29T04:20:54.224Z,3.47
2023-01-29T04:25:02.463Z,3.03
2023-01-29T04:29:21.669Z,3.30
2023-01-29T04:33:38.260Z,3.30
2023-01-29T04:37:46.212Z,3.13
2023-01-29T04:41:55.049Z,3.37
2023-01-29T04:46:14.290Z,3.40
2023-01-29T04:50:22.216Z,3.83
2023-01-29T04:54:34.857Z,3.50
2023-01-29T04:58:42.671Z,3.20
2023-01-29T05:02:48.244Z,3.80
2023-01-29T05:06:52.324Z,3.33
2023-01-29T05:10:58.403Z,3.40
2023-01-29T05:15:05.274Z,3.53
2023-01-29T05:19:10.564Z,3.17
2023-01-29T05:23:18.152Z,3.63
2023-01-29T05:27:46.728Z,3.57
2023-01-29T05:31:49.835Z,3.10
2023-01-29T05:35:55.374Z,3.40
2023-01-29T05:39:58.450Z,3.57
2023-01-29T05:44:01.467Z,3.50
2023-01-29T05:48:04.714Z,3.60
2023-01-29T05:52:09.077Z,3.87
2023-01-29T05:56:12.203Z,4.00
2023-01-29T06:00:16.668Z,4.00
2023-01-29T06:04:19.850Z,3.70
2023-01-29T06:08:24.285Z,3.57
2023-01-29T06:12:28.451Z,3.67
2023-01-29T06:16:31.493Z,4.10
2023-01-29T06:20:34.565Z,3.87
2023-01-29T06:24:39.084Z,2.53
2023-01-29T06:28:42.623Z,4.00
2023-01-29T06:32:45.608Z,3.70
2023-01-29T06:36:48.802Z,3.57
2023-01-29T06:40:53.832Z,3.37
2023-01-29T06:44:56.864Z,4.13
2023-01-29T06:49:01.282Z,3.67
2023-01-29T06:53:04.342Z,4.03
2023-01-29T06:57:08.724Z,4.47
2023-01-29T07:01:25.530Z,4.13
2023-01-29T07:05:36.444Z,3.93
2023-01-29T07:09:39.799Z,4.13
2023-01-29T07:13:44.391Z,4.47
2023-01-29T07:17:57.359Z,4.40
2023-01-29T07:22:02.424Z,4.30
2023-01-29T07:26:06.953Z,4.27
2023-01-29T07:30:12.862Z,4.53
2023-01-29T07:34:15.904Z,4.57
2023-01-29T07:38:19.094Z,3.93
2023-01-29T07:42:22.198Z,4.63
2023-01-29T07:46:26.578Z,5.03
2023-01-29T07:50:29.602Z,4.80
2023-01-29T07:54:32.752Z,4.47
2023-01-29T07:58:36.815Z,5.27
2023-01-29T08:02:41.441Z,4.17
2023-01-29T08:06:44.490Z,4.40
2023-01-29T08:10:47.517Z,4.33
2023-01-29T08:14:51.315Z,4.77
2023-01-29T08:18:55.679Z,4.80
2023-01-29T08:23:02.535Z,4.30
2023-01-29T08:27:05.535Z,4.77
2023-01-29T08:31:14.941Z,4.47
2023-01-29T08:35:19.677Z,4.40
2023-01-29T08:39:23.151Z,4.10
2023-01-29T08:43:26.163Z,4.00
2023-01-29T08:47:29.711Z,4.13
2023-01-29T08:51:34.107Z,4.07
2023-01-29T08:55:38.324Z,4.23
2023-01-29T08:59:41.337Z,4.10
2023-01-29T09:03:44.804Z,4.50
2023-01-29T09:07:49.189Z,4.33
2023-01-29T09:11:52.247Z,4.60
2023-01-29T09:15:56.110Z,3.93
2023-01-29T09:19:59.935Z,4.00
2023-01-29T09:24:04.508Z,4.93
2023-01-29T09:28:07.515Z,4.00
2023-01-29T09:32:10.498Z,4.83
2023-01-29T09:36:14.591Z,4.10
2023-01-29T09:40:27.014Z,4.50
2023-01-29T09:44:50.770Z,4.03
2023-01-29T09:49:02.568Z,3.87
2023-01-29T09:53:16.297Z,4.13
2023-01-29T09:57:26.276Z,4.37
2023-01-29T10:01:36.181Z,4.30
2023-01-29T10:05:55.902Z,4.30
2023-01-29T10:10:11.557Z,4.70
2023-01-29T10:14:25.164Z,4.40
2023-01-29T10:18:43.203Z,3.60
2023-01-29T10:22:59.550Z,4.20
2023-01-29T10:27:04.359Z,5.00
2023-01-29T10:31:13.755Z,4.77
2023-01-29T10:35:23.935Z,4.20
2023-01-29T10:39:28.154Z,4.87
2023-01-29T10:43:40.275Z,4.60
2023-01-29T10:48:33.940Z,4.87
2023-01-29T10:52:51.020Z,4.93
2023-01-29T10:57:06.620Z,5.37
2023-01-29T11:01:10.486Z,5.23
2023-01-29T11:05:24.353Z,4.80
2023-01-29T11:09:33.218Z,4.97
2023-01-29T11:13:41.756Z,4.93
2023-01-29T11:18:03.669Z,5.63
2023-01-29T11:22:15.819Z,4.97
2023-01-29T11:26:22.361Z,5.33
2023-01-29T11:30:28.314Z,5.60
2023-01-29T11:34:32.260Z,5.27
2023-01-29T11:38:36.645Z,5.20
2023-01-29T11:42:39.659Z,4.70
2023-01-29T11:46:42.965Z,4.97
2023-01-29T11:50:53.018Z,4.97
2023-01-29T11:55:02.276Z,5.37
2023-01-29T11:59:05.912Z,5.10
2023-01-29T12:03:16.698Z,5.20
2023-01-29T12:07:20.720Z,5.00
2023-01-29T12:11:30.725Z,4.90
2023-01-29T12:15:35.319Z,5.23
2023-01-29T12:19:45.564Z,4.53
2023-01-29T12:23:56.197Z,5.30
2023-01-29T12:28:05.633Z,4.47
2023-01-29T12:32:21.114Z,4.67
2023-01-29T12:36:30.052Z,4.70
2023-01-29T12:40:43.627Z,4.53
2023-01-29T12:44:51.816Z,4.53
2023-01-29T12:48:57.847Z,4.90
2023-01-29T12:53:06.083Z,4.97
2023-01-29T12:57:19.247Z,4.57
2023-01-29T13:01:31.262Z,5.00
2023-01-29T13:05:39.855Z,4.53
2023-01-29T13:09:47.495Z,4.97
2023-01-29T13:13:55.170Z,4.23
2023-01-29T13:18:03.916Z,5.07
2023-01-29T13:22:18.524Z,4.70
2023-01-29T13:26:23.305Z,5.13
2023-01-29T13:30:31.302Z,4.53
2023-01-29T13:34:38.825Z,4.67
2023-01-29T13:38:46.996Z,4.77
2023-01-29T13:42:53.203Z,5.60
2023-01-29T13:46:59.460Z,4.60
2023-01-29T13:51:05.852Z,4.57
2023-01-29T13:55:22.284Z,4.53
2023-01-29T13:59:46.220Z,5.37
2023-01-29T14:04:04.768Z,5.37
2023-01-29T14:08:38.941Z,5.27
2023-01-29T14:12:43.897Z,5.03
2023-01-29T14:16:47.421Z,4.60
2023-01-29T14:20:59.637Z,4.47
2023-01-29T14:25:06.370Z,5.27
2023-01-29T14:29:29.059Z,4.97
2023-01-29T14:33:41.163Z,5.30
2023-01-29T14:37:50.790Z,5.17
2023-01-29T14:41:54.136Z,4.90
2023-01-29T14:46:35.750Z,4.60
2023-01-29T14:50:55.191Z,5.47
2023-01-29T14:55:04.063Z,5.50
2023-01-29T14:59:17.782Z,5.43
2023-01-29T15:03:27.936Z,6.23
2023-01-29T15:07:35.977Z,6.00
2023-01-29T15:11:49.858Z,5.80
2023-01-29T15:15:56.227Z,5.30
2023-01-29T15:19:59.309Z,5.57
2023-01-29T15:24:06.667Z,5.97
2023-01-29T15:28:12.633Z,5.70
2023-01-29T15:32:28.459Z,5.47
2023-01-29T15:36:33.190Z,5.30
2023-01-29T15:40:36.205Z,5.47
2023-01-29T15:44:46.499Z,4.57
2023-01-29T15:48:50.969Z,5.10
2023-01-29T15:52:56.131Z,5.40
2023-01-29T15:57:00.319Z,5.13
2023-01-29T16:01:05.260Z,4.40
2023-01-29T16:05:14.281Z,5.30
2023-01-29T16:09:23.609Z,4.77
2023-01-29T16:13:30.036Z,5.93
2023-01-29T16:17:37.698Z,4.70
2023-01-29T16:21:45.984Z,5.20
2023-01-29T16:25:50.738Z,4.93
2023-01-29T16:29:54.248Z,5.53
2023-01-29T16:34:00.215Z,4.70
2023-01-29T16:38:09.135Z,5.40
2023-01-29T16:42:29.966Z,5.40
2023-01-29T16:46:35.377Z,4.83
2023-01-29T16:50:53.921Z,5.17
2023-01-29T16:55:20.620Z,4.87
2023-01-29T16:59:33.686Z,5.00
2023-01-29T17:03:38.361Z,4.73
2023-01-29T17:07:46.986Z,4.90
2023-01-29T17:11:56.776Z,4.70
2023-01-29T17:16:02.801Z,4.43
2023-01-29T17:20:14.825Z,4.90
2023-01-29T17:24:19.475Z,4.50
2023-01-29T17:28:22.521Z,4.93
2023-01-29T17:32:45.243Z,4.30
2023-01-29T17:36:50.416Z,5.07
2023-01-29T17:40:57.445Z,5.93
2023-01-29T17:45:00.488Z,5.33
2023-01-29T17:49:04.507Z,5.30
2023-01-29T17:53:07.639Z,5.77
2023-01-29T17:57:15.525Z,5.37
2023-01-29T18:01:18.687Z,5.47
2023-01-29T18:05:21.739Z,5.30
2023-01-29T18:09:24.987Z,5.17
2023-01-29T18:13:29.757Z,5.17
2023-01-29T18:17:32.783Z,5.23
2023-01-29T18:21:35.822Z,5.23
2023-01-29T18:25:39.840Z,5.67
2023-01-29T18:29:44.207Z,4.70
2023-01-29T18:33:47.450Z,6.33
2023-01-29T18:37:51.443Z,5.90
2023-01-29T18:41:54.439Z,6.47
2023-01-29T18:46:00.310Z,6.30
2023-01-29T18:50:03.375Z,6.07
2023-01-29T18:54:06.499Z,5.70
2023-01-29T18:58:26.655Z,5.77
2023-01-29T19:02:34.398Z,6.33
2023-01-29T19:06:38.041Z,6.20
2023-01-29T19:10:41.587Z,7.20
2023-01-29T19:14:44.686Z,6.97
2023-01-29T19:18:49.111Z,7.73
2023-01-29T19:22:52.243Z,6.97
2023-01-29T19:26:55.791Z,6.70
2023-01-29T19:30:59.099Z,7.53
2023-01-29T19:35:03.662Z,6.77
2023-01-29T19:39:06.880Z,7.17
2023-01-29T19:43:09.929Z,7.53
2023-01-29T19:47:13.069Z,7.17
2023-01-29T19:51:17.502Z,8.07
2023-01-29T19:55:21.664Z,7.57
2023-01-29T19:59:24.763Z,8.10
2023-01-29T20:03:29.308Z,8.33
2023-01-29T20:07:33.712Z,8.40
2023-01-29T20:11:36.753Z,8.23
2023-01-29T20:15:39.822Z,7.57
2023-01-29T20:19:42.837Z,8.23
2023-01-29T20:23:47.339Z,7.77
2023-01-29T20:27:50.560Z,6.77
2023-01-29T20:31:53.628Z,7.20
2023-01-29T20:35:57.391Z,6.97
2023-01-29T20:40:01.787Z,7.27
2023-01-29T20:44:04.864Z,7.43
2023-01-29T20:48:08.851Z,7.30
2023-01-29T20:52:12.512Z,7.50
2023-01-29T20:56:18.299Z,7.73
2023-01-29T21:00:27.584Z,8.03
2023-01-29T21:04:31.378Z,7.53
2023-01-29T21:08:35.358Z,7.27
2023-01-29T21:12:39.753Z,8.10
2023-01-29T21:16:42.797Z,7.70
2023-01-29T21:20:46.007Z,7.57
2023-01-29T21:24:49.037Z,7.83
2023-01-29T21:28:53.977Z,7.37
2023-01-29T21:32:57.097Z,8.23
2023-01-29T21:37:00.160Z,7.40
2023-01-29T21:41:05.293Z,7.80
2023-01-29T21:45:11.096Z,7.43
2023-01-29T21:49:14.093Z,7.00
2023-01-29T21:53:17.227Z,8.77
2023-01-29T21:57:20.296Z,9.50
2023-01-29T22:01:37.423Z,8.13
2023-01-29T22:05:41.653Z,10.00
2023-01-29T22:09:44.687Z,9.47
2023-01-29T22:13:48.062Z,9.03
2023-01-29T22:17:52.739Z,9.53
2023-01-29T22:21:56.258Z,10.03
2023-01-29T22:26:03.563Z,9.80
2023-01-29T22:30:08.103Z,10.00
2023-01-29T22:34:13.419Z,10.80
2023-01-29T22:38:16.476Z,10.77
2023-01-29T22:42:20.255Z,10.40
2023-01-29T22:46:23.296Z,9.30
2023-01-29T22:50:27.860Z,9.90
2023-01-29T22:54:30.914Z,8.53
2023-01-29T22:58:34.153Z,10.13
2023-01-29T23:02:37.403Z,9.80
2023-01-29T23:06:41.970Z,9.17
2023-01-29T23:10:45.149Z,8.47
2023-01-29T23:14:48.192Z,8.23
2023-01-29T23:18:53.402Z,8.17
2023-01-29T23:22:57.882Z,8.43
2023-01-29T23:27:15.827Z,9.23
2023-01-29T23:31:19.282Z,8.30
2023-01-29T23:35:22.368Z,9.27
2023-01-29T23:39:26.793Z,7.50
2023-01-29T23:43:30.603Z,8.97
2023-01-29T23:47:33.655Z,8.73
2023-01-29T23:51:36.731Z,8.50
2023-01-29T23:55:41.457Z,7.90
2023-01-29T23:59:44.541Z,8.00
